Time;durP1;ratioP1;P1;durP2;ratioP2;P2;SDS_P1;SDS_P2;PMS_P1;PMS_P2;Temp;Humidity;BMP_temperature;BMP_pressure;BME280_temperature;BME280_humidity;BME280_pressure;Samples;Min_cycle;Max_cycle;Signal;HPM_P1;HPM_P2
2022/11/10 00:01:31;;;;;;;;;;;10.40;99.90;;;;;;5009229;28;19932;-73
2022/11/10 00:04:16;;;;;;;;;;;10.40;99.90;;;;;;5008384;28;19936;-74
2022/11/10 00:07:06;;;;;;;;;;;10.40;99.90;;;;;;5009343;28;20031;-73
2022/11/10 00:09:56;;;;;;;;;;;10.40;99.90;;;;;;5010347;28;19932;-73
2022/11/10 00:12:47;;;;;;;;;;;10.40;99.90;;;;;;4996215;28;19933;-74
2022/11/10 00:18:46;;;;;;;;;;;10.40;99.90;;;;;;5010317;28;20048;-74
2022/11/10 00:21:36;;;;;;;;;;;10.40;99.90;;;;;;4996860;28;20300;-75
2022/11/10 00:24:27;;;;;;;;;;;10.40;99.90;;;;;;5010059;28;20068;-74
2022/11/10 00:27:17;;;;;;;;;;;10.30;99.90;;;;;;5012658;28;20020;-74
2022/11/10 00:30:02;;;;;;;;;;;10.40;99.90;;;;;;4998897;28;19936;-74
2022/11/10 00:32:48;;;;;;;;;;;10.30;99.90;;;;;;4999158;28;19940;-74
2022/11/10 00:35:38;;;;;;;;;;;10.40;99.90;;;;;;5014090;28;19936;-74
2022/11/10 00:38:28;;;;;;;;;;;10.40;99.90;;;;;;5014011;28;20398;-74
2022/11/10 00:41:18;;;;;;;;;;;10.40;99.90;;;;;;4999282;28;19933;-74
2022/11/10 00:44:08;;;;;;;;;;;10.40;99.90;;;;;;5013606;28;19967;-74
2022/11/10 00:46:53;;;;;;;;;;;10.40;99.90;;;;;;4998696;28;19936;-72
2022/11/10 00:49:43;;;;;;;;;;;10.30;99.90;;;;;;4999371;28;19940;-73
2022/11/10 00:52:28;;;;;;;;;;;10.40;99.90;;;;;;5013710;28;19933;-74
2022/11/10 00:55:14;;;;;;;;;;;10.40;99.90;;;;;;4998072;28;19947;-72
2022/11/10 00:58:04;;;;;;;;;;;10.40;99.90;;;;;;4998857;28;20011;-72
2022/11/10 01:00:49;;;;;;;;;;;10.20;99.90;;;;;;5013503;28;20075;-73
2022/11/10 01:03:39;;;;;;;;;;;10.10;99.90;;;;;;4996431;28;19937;-73
2022/11/10 01:06:30;;;;;;;;;;;10.00;99.90;;;;;;4998851;28;19933;-74
2022/11/10 01:09:20;;;;;;;;;;;10.00;99.90;;;;;;4999205;28;20296;-76
2022/11/10 01:12:05;;;;;;;;;;;9.90;99.90;;;;;;5012832;28;19937;-74
2022/11/10 01:14:55;;;;;;;;;;;9.90;99.90;;;;;;5011795;28;19937;-75
2022/11/10 01:17:45;;;;;;;;;;;9.80;99.90;;;;;;4998592;28;19956;-73
2022/11/10 01:20:36;;;;;;;;;;;9.80;99.90;;;;;;4998829;28;19948;-73
2022/11/10 01:23:26;;;;;;;;;;;9.80;99.90;;;;;;5012786;28;19932;-73
2022/11/10 01:26:17;;;;;;;;;;;9.80;99.90;;;;;;5011469;28;19932;-74
2022/11/10 01:29:07;;;;;;;;;;;9.70;99.90;;;;;;4998884;28;19962;-74
2022/11/10 01:31:57;;;;;;;;;;;9.70;99.90;;;;;;4998972;28;19947;-74
2022/11/10 01:34:47;;;;;;;;;;;9.70;99.90;;;;;;5012441;28;19940;-74
2022/11/10 01:37:32;;;;;;;;;;;9.70;99.90;;;;;;5011388;28;20026;-74
2022/11/10 01:40:22;;;;;;;;;;;9.70;99.90;;;;;;5012884;28;19936;-77
2022/11/10 01:43:13;;;;;;;;;;;9.60;99.90;;;;;;4998168;28;20030;-75
2022/11/10 01:46:07;;;;;;;;;;;9.60;99.90;;;;;;5011572;28;20015;-74
2022/11/10 01:48:59;;;;;;;;;;;9.60;99.90;;;;;;4999093;28;20007;-75
2022/11/10 01:51:56;;;;;;;;;;;9.60;99.90;;;;;;4997727;28;19932;-74
2022/11/10 01:54:47;;;;;;;;;;;9.60;99.90;;;;;;4997866;28;19933;-74
2022/11/10 01:57:39;;;;;;;;;;;9.60;99.90;;;;;;4998020;28;20134;-75
2022/11/10 02:00:29;;;;;;;;;;;9.60;99.90;;;;;;4997556;28;19967;-75
2022/11/10 02:03:17;;;;;;;;;;;9.60;99.90;;;;;;4996068;28;19949;-76
2022/11/10 02:06:03;;;;;;;;;;;9.60;99.90;;;;;;5011909;28;19932;-74
2022/11/10 02:08:54;;;;;;;;;;;9.60;99.90;;;;;;4996676;28;19932;-73
2022/11/10 02:11:44;;;;;;;;;;;9.70;99.90;;;;;;4997588;28;19932;-73
2022/11/10 02:14:35;;;;;;;;;;;9.70;99.90;;;;;;5011802;28;20072;-74
2022/11/10 02:17:25;;;;;;;;;;;9.70;99.90;;;;;;4996979;28;20055;-73
2022/11/10 02:20:17;;;;;;;;;;;9.70;99.90;;;;;;5010902;28;19932;-73
2022/11/10 02:23:11;;;;;;;;;;;9.70;99.90;;;;;;5011120;28;20331;-75
2022/11/10 02:26:02;;;;;;;;;;;9.70;99.90;;;;;;5011241;28;20027;-74
2022/11/10 02:28:47;;;;;;;;;;;9.70;99.90;;;;;;5011536;28;20433;-73
2022/11/10 02:31:38;;;;;;;;;;;9.70;99.90;;;;;;4996410;28;19979;-74
2022/11/10 02:34:28;;;;;;;;;;;9.70;99.90;;;;;;5010409;28;19932;-74
2022/11/10 02:37:13;;;;;;;;;;;9.70;99.90;;;;;;4995209;28;19933;-74
2022/11/10 02:40:04;;;;;;;;;;;9.70;99.90;;;;;;5010976;28;20407;-73
2022/11/10 02:42:54;;;;;;;;;;;9.70;99.90;;;;;;4996782;28;19945;-74
2022/11/10 02:45:45;;;;;;;;;;;9.70;99.90;;;;;;4995583;28;20413;-74
2022/11/10 02:48:35;;;;;;;;;;;9.80;99.90;;;;;;5007640;28;20347;-75
2022/11/10 02:51:26;;;;;;;;;;;9.80;99.90;;;;;;5010318;28;20403;-76
2022/11/10 02:54:16;;;;;;;;;;;9.80;99.90;;;;;;5009530;28;19936;-75
2022/11/10 02:57:01;;;;;;;;;;;9.80;99.90;;;;;;5010376;28;20036;-73
2022/11/10 02:59:46;;;;;;;;;;;9.80;99.90;;;;;;5009974;28;19948;-74
2022/11/10 03:02:37;;;;;;;;;;;9.80;99.90;;;;;;4996647;28;20414;-74
2022/11/10 03:05:28;;;;;;;;;;;9.80;99.90;;;;;;5010749;28;19932;-74
2022/11/10 03:08:18;;;;;;;;;;;9.80;99.90;;;;;;4995873;28;19933;-74
2022/11/10 03:11:08;;;;;;;;;;;9.80;99.90;;;;;;5009409;28;19932;-74
2022/11/10 03:13:58;;;;;;;;;;;9.80;99.90;;;;;;5010591;28;20015;-74
2022/11/10 03:16:44;;;;;;;;;;;9.80;99.90;;;;;;5010340;28;20415;-74
2022/11/10 03:19:34;;;;;;;;;;;9.70;99.90;;;;;;4996350;28;20693;-74
2022/11/10 03:22:19;;;;;;;;;;;9.70;99.90;;;;;;5010425;28;19932;-74
2022/11/10 03:25:10;;;;;;;;;;;9.60;99.90;;;;;;4996583;28;19979;-74
2022/11/10 03:28:00;;;;;;;;;;;9.60;99.90;;;;;;5006900;28;20607;-75
2022/11/10 03:30:50;;;;;;;;;;;9.50;99.90;;;;;;5009949;28;20071;-74
2022/11/10 03:33:35;;;;;;;;;;;9.40;99.90;;;;;;4995135;28;20506;-74
2022/11/10 03:36:25;;;;;;;;;;;9.40;99.90;;;;;;4995114;28;20431;-74
2022/11/10 03:39:15;;;;;;;;;;;9.30;99.90;;;;;;4996782;28;19936;-73
2022/11/10 03:42:05;;;;;;;;;;;9.20;99.90;;;;;;5007757;28;19940;-73
2022/11/10 03:44:55;;;;;;;;;;;9.30;99.90;;;;;;5009993;28;19936;-73
2022/11/10 03:47:43;;;;;;;;;;;9.20;99.90;;;;;;5009990;28;20021;-74
2022/11/10 03:50:34;;;;;;;;;;;9.20;99.90;;;;;;5010221;28;20399;-74
2022/11/10 03:53:24;;;;;;;;;;;9.20;99.90;;;;;;4994543;28;19947;-74
2022/11/10 03:56:14;;;;;;;;;;;9.20;99.90;;;;;;5009773;28;20027;-74
2022/11/10 03:59:04;;;;;;;;;;;9.20;99.90;;;;;;4994954;28;20060;-74
2022/11/10 04:01:54;;;;;;;;;;;9.30;99.90;;;;;;5007285;28;19952;-74
2022/11/10 04:11:08;;;;;;;;;;;9.30;99.90;;;;;;5008279;28;19956;-74
2022/11/10 04:17:08;;;;;;;;;;;9.40;99.90;;;;;;5008628;28;19932;-74
2022/11/10 04:19:59;;;;;;;;;;;9.40;99.90;;;;;;5001644;28;20030;-74
2022/11/10 04:28:59;;;;;;;;;;;9.50;99.90;;;;;;5010018;28;19932;-72
2022/11/10 04:31:49;;;;;;;;;;;9.50;99.90;;;;;;4995790;28;19932;-74
2022/11/10 04:34:39;;;;;;;;;;;9.50;99.90;;;;;;4994731;28;19991;-73
2022/11/10 04:37:24;;;;;;;;;;;9.50;99.90;;;;;;5007029;28;20052;-74
2022/11/10 04:40:14;;;;;;;;;;;9.50;99.90;;;;;;4996112;28;20031;-74
2022/11/10 04:43:04;;;;;;;;;;;9.50;99.90;;;;;;5008871;28;20019;-74
2022/11/10 04:45:55;;;;;;;;;;;9.50;99.90;;;;;;5007367;28;19932;-74
2022/11/10 04:48:40;;;;;;;;;;;9.50;99.90;;;;;;4991429;28;19933;-73
2022/11/10 04:51:32;;;;;;;;;;;9.40;99.90;;;;;;4995817;28;20042;-74
2022/11/10 04:54:22;;;;;;;;;;;9.50;99.90;;;;;;5008501;28;20079;-74
2022/11/10 04:57:07;;;;;;;;;;;9.50;99.90;;;;;;5005861;28;20060;-74
2022/11/10 04:59:57;;;;;;;;;;;9.50;99.90;;;;;;4992199;28;19949;-76
2022/11/10 05:02:47;;;;;;;;;;;9.50;99.90;;;;;;4992275;28;20419;-73
2022/11/10 05:05:32;;;;;;;;;;;9.50;99.90;;;;;;4994492;28;20035;-74
2022/11/10 05:08:22;;;;;;;;;;;9.50;99.90;;;;;;4994718;28;20291;-72
2022/11/10 05:11:08;;;;;;;;;;;9.50;99.90;;;;;;5006832;28;20272;-76
2022/11/10 05:13:58;;;;;;;;;;;9.50;99.90;;;;;;5011226;28;19932;-72
2022/11/10 05:16:43;;;;;;;;;;;9.50;99.90;;;;;;4996732;28;19936;-73
2022/11/10 05:19:33;;;;;;;;;;;9.40;99.90;;;;;;4997546;28;19933;-73
2022/11/10 05:22:23;;;;;;;;;;;9.40;99.90;;;;;;4998617;28;19932;-75
2022/11/10 05:25:13;;;;;;;;;;;9.30;99.90;;;;;;5011488;28;19932;-73
2022/11/10 05:28:04;;;;;;;;;;;9.20;99.90;;;;;;5008171;28;20023;-72
2022/11/10 05:30:54;;;;;;;;;;;9.10;99.90;;;;;;5012477;28;20473;-72
2022/11/10 05:33:39;;;;;;;;;;;9.10;99.90;;;;;;5011351;28;19933;-74
2022/11/10 05:36:30;;;;;;;;;;;9.00;99.90;;;;;;5013290;28;19936;-73
2022/11/10 05:39:20;;;;;;;;;;;9.00;99.90;;;;;;5012041;28;20019;-74
2022/11/10 05:42:10;;;;;;;;;;;8.90;99.90;;;;;;4997382;28;20475;-72
2022/11/10 05:45:00;;;;;;;;;;;8.90;99.90;;;;;;4980044;28;19933;-72
2022/11/10 05:47:46;;;;;;;;;;;8.90;99.90;;;;;;5012900;28;19932;-73
2022/11/10 05:50:36;;;;;;;;;;;8.80;99.90;;;;;;5009383;28;19936;-73
2022/11/10 05:53:27;;;;;;;;;;;8.70;99.90;;;;;;5000671;28;19936;-73
2022/11/10 05:56:17;;;;;;;;;;;8.70;99.90;;;;;;4989793;28;19932;-72
2022/11/10 05:59:02;;;;;;;;;;;8.70;99.90;;;;;;4997174;28;19933;-73
2022/11/10 06:01:52;;;;;;;;;;;8.70;99.90;;;;;;4992670;28;19933;-74
2022/11/10 06:04:37;;;;;;;;;;;8.60;99.90;;;;;;4998974;28;20040;-73
2022/11/10 06:07:27;;;;;;;;;;;8.60;99.90;;;;;;4989127;28;19933;-72
2022/11/10 06:10:18;;;;;;;;;;;8.50;99.90;;;;;;5007784;28;19932;-72
2022/11/10 06:13:09;;;;;;;;;;;8.40;99.90;;;;;;5009911;28;19932;-73
2022/11/10 06:15:59;;;;;;;;;;;8.40;99.90;;;;;;5009034;28;20291;-73
2022/11/10 06:18:44;;;;;;;;;;;8.40;99.90;;;;;;4995825;28;19931;-72
2022/11/10 06:21:30;;;;;;;;;;;8.50;99.90;;;;;;4993995;28;19933;-73
2022/11/10 06:24:20;;;;;;;;;;;8.60;99.90;;;;;;5008772;28;19932;-74
2022/11/10 06:27:05;;;;;;;;;;;8.60;99.90;;;;;;5010523;28;19932;-76
2022/11/10 06:29:55;;;;;;;;;;;8.70;99.90;;;;;;4994345;28;19932;-73
2022/11/10 06:32:41;;;;;;;;;;;8.70;99.90;;;;;;4995898;28;19933;-73
2022/11/10 06:35:31;;;;;;;;;;;8.70;99.90;;;;;;5010321;28;20293;-74
2022/11/10 06:38:16;;;;;;;;;;;8.70;99.90;;;;;;5009060;28;19933;-74
2022/11/10 06:41:07;;;;;;;;;;;8.70;99.90;;;;;;5009351;28;19983;-74
2022/11/10 06:43:57;;;;;;;;;;;8.70;99.90;;;;;;4997362;28;19953;-75
2022/11/10 06:46:47;;;;;;;;;;;8.60;99.90;;;;;;5010321;28;19936;-75
2022/11/10 06:49:38;;;;;;;;;;;8.50;99.90;;;;;;5010020;28;20434;-74
2022/11/10 06:52:30;;;;;;;;;;;8.50;99.90;;;;;;4995931;28;19935;-75
2022/11/10 06:55:20;;;;;;;;;;;8.50;99.90;;;;;;4995945;28;19948;-75
2022/11/10 06:58:07;;;;;;;;;;;8.40;99.90;;;;;;4992285;28;19933;-74
2022/11/10 07:00:59;;;;;;;;;;;8.30;99.90;;;;;;5009825;28;20434;-74
2022/11/10 07:03:49;;;;;;;;;;;8.30;99.90;;;;;;5000255;28;20013;-75
2022/11/10 07:06:39;;;;;;;;;;;8.30;99.90;;;;;;4993561;28;19960;-75
2022/11/10 07:09:29;;;;;;;;;;;8.40;99.90;;;;;;5011929;28;20019;-74
2022/11/10 07:12:14;;;;;;;;;;;8.40;99.90;;;;;;4984196;28;20027;-75
2022/11/10 07:15:04;;;;;;;;;;;8.50;99.90;;;;;;4997869;28;19976;-73
2022/11/10 07:17:54;;;;;;;;;;;8.50;99.90;;;;;;4994458;28;19932;-75
2022/11/10 07:20:45;;;;;;;;;;;8.70;99.90;;;;;;4986743;28;19933;-75
2022/11/10 07:23:35;;;;;;;;;;;8.70;99.90;;;;;;4997483;28;19932;-75
2022/11/10 07:26:20;;;;;;;;;;;8.70;99.90;;;;;;5015524;28;19932;-75
2022/11/10 07:29:10;;;;;;;;;;;8.70;99.90;;;;;;4994518;28;19988;-74
2022/11/10 07:32:01;;;;;;;;;;;8.70;99.90;;;;;;5009296;28;20292;-74
2022/11/10 07:34:51;;;;;;;;;;;8.70;99.90;;;;;;4996032;28;19932;-74
2022/11/10 07:37:41;;;;;;;;;;;8.70;99.90;;;;;;5010899;28;19996;-74
2022/11/10 07:40:26;;;;;;;;;;;8.70;99.90;;;;;;5009533;28;19972;-73
2022/11/10 07:43:17;;;;;;;;;;;8.70;99.90;;;;;;5011752;28;20443;-73
2022/11/10 07:46:08;;;;;;;;;;;8.70;99.90;;;;;;5010168;28;19983;-72
2022/11/10 07:48:58;;;;;;;;;;;8.70;99.90;;;;;;4989175;28;19935;-73
2022/11/10 07:51:48;;;;;;;;;;;8.80;99.90;;;;;;5011528;28;19935;-75
2022/11/10 07:54:38;;;;;;;;;;;8.90;99.90;;;;;;4993649;28;20335;-74
2022/11/10 07:57:23;;;;;;;;;;;8.90;99.90;;;;;;5009854;28;20007;-75
2022/11/10 08:00:13;;;;;;;;;;;9.00;99.90;;;;;;5005668;28;19932;-74
2022/11/10 08:03:11;;;;;;;;;;;9.10;99.90;;;;;;4997068;28;19932;-74
2022/11/10 08:05:56;;;;;;;;;;;9.10;99.90;;;;;;4996352;28;19932;-72
2022/11/10 08:08:47;;;;;;;;;;;9.20;99.90;;;;;;4997291;28;19933;-73
2022/11/10 08:11:32;;;;;;;;;;;9.30;99.90;;;;;;4983380;28;19933;-71
2022/11/10 08:14:22;;;;;;;;;;;9.40;99.90;;;;;;5008357;28;19932;-73
2022/11/10 08:17:12;;;;;;;;;;;9.50;99.90;;;;;;4993604;28;20024;-72
2022/11/10 08:20:03;;;;;;;;;;;9.60;99.90;;;;;;4994752;28;19932;-72
2022/11/10 08:22:58;;;;;;;;;;;9.70;99.90;;;;;;5009620;28;19931;-72
2022/11/10 08:25:51;;;;;;;;;;;9.70;99.90;;;;;;4991190;28;19944;-73
2022/11/10 08:28:41;;;;;;;;;;;9.80;99.90;;;;;;4994816;28;19933;-73
2022/11/10 08:31:32;;;;;;;;;;;9.90;99.90;;;;;;5006626;28;20461;-73
2022/11/10 08:34:23;;;;;;;;;;;9.90;99.90;;;;;;5008111;28;19933;-74
2022/11/10 08:37:13;;;;;;;;;;;10.00;99.90;;;;;;5006489;28;19933;-73
2022/11/10 08:40:03;;;;;;;;;;;10.00;99.90;;;;;;4994131;28;19975;-74
2022/11/10 08:42:56;;;;;;;;;;;10.10;99.90;;;;;;5007111;28;19936;-73
2022/11/10 08:45:46;;;;;;;;;;;10.10;99.90;;;;;;5009347;28;20068;-72
2022/11/10 08:48:36;;;;;;;;;;;10.20;99.90;;;;;;5012256;28;19932;-74
2022/11/10 08:51:26;;;;;;;;;;;10.20;99.90;;;;;;5011536;28;19955;-74
2022/11/10 08:54:17;;;;;;;;;;;10.30;99.90;;;;;;4998508;28;19933;-75
2022/11/10 08:57:07;;;;;;;;;;;10.30;99.90;;;;;;5006749;28;19932;-73
2022/11/10 08:59:57;;;;;;;;;;;10.40;99.90;;;;;;4995934;28;19932;-73
2022/11/10 09:02:48;;;;;;;;;;;10.50;99.90;;;;;;5007306;28;20641;-73
2022/11/10 09:05:38;;;;;;;;;;;10.50;99.90;;;;;;5011922;28;20072;-74
2022/11/10 09:08:29;;;;;;;;;;;10.50;99.90;;;;;;5011602;28;19932;-73
2022/11/10 09:11:19;;;;;;;;;;;10.60;99.90;;;;;;4998421;28;19947;-73
2022/11/10 09:14:09;;;;;;;;;;;10.60;99.90;;;;;;5009901;28;20076;-73
2022/11/10 09:16:54;;;;;;;;;;;10.70;99.90;;;;;;4995357;28;19933;-74
2022/11/10 09:19:44;;;;;;;;;;;10.80;99.90;;;;;;5012074;28;20655;-73
2022/11/10 09:22:35;;;;;;;;;;;10.90;99.90;;;;;;5012621;28;20363;-72
2022/11/10 09:25:25;;;;;;;;;;;11.00;99.90;;;;;;5011770;28;19933;-73
2022/11/10 09:28:16;;;;;;;;;;;11.10;99.90;;;;;;4997196;28;19933;-72
2022/11/10 09:31:01;;;;;;;;;;;11.10;99.90;;;;;;5004353;28;19931;-73
2022/11/10 09:33:51;;;;;;;;;;;11.10;99.90;;;;;;4996782;28;19975;-74
2022/11/10 09:36:42;;;;;;;;;;;11.00;99.90;;;;;;5006197;28;19967;-74
2022/11/10 09:39:32;;;;;;;;;;;10.90;99.90;;;;;;4996382;28;20289;-73
2022/11/10 09:42:28;;;;;;;;;;;10.90;99.90;;;;;;5008856;28;19976;-75
2022/11/10 09:45:13;;;;;;;;;;;10.80;99.90;;;;;;5010326;28;19932;-74
2022/11/10 09:48:05;;;;;;;;;;;10.80;99.90;;;;;;4996483;28;20423;-74
2022/11/10 09:50:58;;;;;;;;;;;10.80;99.90;;;;;;5010111;28;20512;-74
2022/11/10 09:53:48;;;;;;;;;;;10.90;99.90;;;;;;4990775;28;20090;-74
2022/11/10 09:56:40;;;;;;;;;;;10.90;99.90;;;;;;5005035;28;19977;-73
2022/11/10 09:59:31;;;;;;;;;;;11.00;99.90;;;;;;5010603;28;19936;-75
2022/11/10 10:02:29;;;;;;;;;;;11.10;99.90;;;;;;5012455;28;19980;-74
2022/11/10 10:05:33;;;;;;;;;;;11.20;99.90;;;;;;4998577;28;20016;-74
2022/11/10 10:08:38;;;;;;;;;;;11.30;99.90;;;;;;4989656;28;19932;-75
2022/11/10 10:11:28;;;;;;;;;;;11.40;99.90;;;;;;5007166;28;19947;-74
2022/11/10 10:14:30;;;;;;;;;;;11.60;99.90;;;;;;4997105;28;19936;-74
2022/11/10 10:17:43;;;;;;;;;;;11.60;99.90;;;;;;4986841;28;19937;-74
2022/11/10 10:20:40;;;;;;;;;;;11.60;99.90;;;;;;4997424;28;19979;-73
2022/11/10 10:23:35;;;;;;;;;;;11.60;99.90;;;;;;4998892;28;19932;-74
2022/11/10 10:26:27;;;;;;;;;;;11.60;99.90;;;;;;5009127;28;20387;-73
2022/11/10 10:29:22;;;;;;;;;;;11.70;99.90;;;;;;5011917;28;19936;-73
2022/11/10 10:32:13;;;;;;;;;;;11.70;99.90;;;;;;5003225;28;19932;-73
2022/11/10 10:35:03;;;;;;;;;;;11.80;99.90;;;;;;4997489;28;20384;-75
2022/11/10 10:37:55;;;;;;;;;;;11.80;99.90;;;;;;5010669;28;19932;-75
2022/11/10 10:40:47;;;;;;;;;;;11.80;99.90;;;;;;4996935;28;19933;-73
2022/11/10 10:43:32;;;;;;;;;;;11.90;99.90;;;;;;4997739;28;19932;-74
2022/11/10 10:46:27;;;;;;;;;;;11.90;99.90;;;;;;4984112;28;19948;-73
2022/11/10 10:49:19;;;;;;;;;;;11.90;99.90;;;;;;5012181;28;20387;-74
2022/11/10 10:52:09;;;;;;;;;;;11.80;99.90;;;;;;5001419;28;19971;-74
2022/11/10 10:55:00;;;;;;;;;;;11.80;99.90;;;;;;5011936;28;19936;-74
2022/11/10 10:57:49;;;;;;;;;;;11.80;99.90;;;;;;5009083;28;19932;-73
2022/11/10 11:00:44;;;;;;;;;;;12.00;99.90;;;;;;4993613;28;19936;-74
2022/11/10 11:03:42;;;;;;;;;;;12.10;99.90;;;;;;4987616;28;19933;-73
2022/11/10 11:06:33;;;;;;;;;;;12.10;99.90;;;;;;4995381;28;20051;-76
2022/11/10 11:09:25;;;;;;;;;;;12.30;99.90;;;;;;4996343;28;19945;-74
2022/11/10 11:12:21;;;;;;;;;;;12.30;99.90;;;;;;5011346;28;19935;-76
2022/11/10 11:15:14;;;;;;;;;;;12.20;99.90;;;;;;4996657;28;19932;-75
2022/11/10 11:18:04;;;;;;;;;;;12.00;99.90;;;;;;4995726;28;19932;-74
2022/11/10 11:20:55;;;;;;;;;;;11.80;99.90;;;;;;5008402;28;20003;-74
2022/11/10 11:23:45;;;;;;;;;;;11.70;99.90;;;;;;5007911;28;19940;-74
2022/11/10 11:26:55;;;;;;;;;;;11.60;99.90;;;;;;4994876;28;19936;-75
2022/11/10 11:30:01;;;;;;;;;;;11.50;99.90;;;;;;4994744;28;20047;-73
2022/11/10 11:32:57;;;;;;;;;;;11.40;99.90;;;;;;4992941;28;20016;-72
2022/11/10 11:36:11;;;;;;;;;;;11.40;99.90;;;;;;4994616;28;19941;-73
2022/11/10 11:39:19;;;;;;;;;;;11.40;99.90;;;;;;5010034;28;20291;-74
2022/11/10 11:42:25;;;;;;;;;;;11.60;99.90;;;;;;5008991;28;20077;-73
2022/11/10 11:45:13;;;;;;;;;;;11.80;99.90;;;;;;4993693;28;19932;-73
2022/11/10 11:48:09;;;;;;;;;;;12.00;99.90;;;;;;4995078;28;19948;-75
2022/11/10 11:51:06;;;;;;;;;;;12.20;99.90;;;;;;5001869;28;20662;-75
2022/11/10 11:54:15;;;;;;;;;;;12.40;99.90;;;;;;5000093;28;19932;-76
2022/11/10 11:57:11;;;;;;;;;;;12.60;99.90;;;;;;5003285;28;20493;-73
2022/11/10 12:00:02;;;;;;;;;;;12.80;99.90;;;;;;4986935;28;20019;-75
2022/11/10 12:03:06;;;;;;;;;;;12.90;99.90;;;;;;5001865;28;20292;-73
2022/11/10 12:06:11;;;;;;;;;;;13.10;99.90;;;;;;5005710;28;19936;-74
2022/11/10 12:09:03;;;;;;;;;;;13.20;99.90;;;;;;4989738;28;20339;-74
2022/11/10 12:11:48;;;;;;;;;;;13.30;99.90;;;;;;5003216;28;19944;-74
2022/11/10 12:14:52;;;;;;;;;;;13.30;99.90;;;;;;5006461;28;19936;-74
2022/11/10 12:17:50;;;;;;;;;;;13.20;99.90;;;;;;4988841;28;20060;-75
2022/11/10 12:20:46;;;;;;;;;;;13.20;99.90;;;;;;5007557;28;19932;-74
2022/11/10 12:23:43;;;;;;;;;;;13.10;99.90;;;;;;5012545;28;20088;-75
2022/11/10 12:26:40;;;;;;;;;;;13.20;99.90;;;;;;5011914;28;19936;-74
2022/11/10 12:30:03;;;;;;;;;;;13.20;99.90;;;;;;5007556;28;20039;-74
2022/11/10 12:32:55;;;;;;;;;;;13.30;99.90;;;;;;4976124;28;19964;-74
2022/11/10 12:35:46;;;;;;;;;;;13.40;99.90;;;;;;5009870;28;20259;-74
2022/11/10 12:38:40;;;;;;;;;;;13.30;99.90;;;;;;4994014;28;21766;-74
2022/11/10 12:41:28;;;;;;;;;;;13.50;99.90;;;;;;4987705;28;20118;-74
2022/11/10 12:44:20;;;;;;;;;;;13.60;99.90;;;;;;4994437;28;19940;-74
2022/11/10 12:47:08;;;;;;;;;;;13.60;99.90;;;;;;4996122;28;19941;-75
2022/11/10 12:50:17;;;;;;;;;;;13.70;99.90;;;;;;5008563;28;19972;-74
2022/11/10 12:53:13;;;;;;;;;;;13.70;99.90;;;;;;4993610;28;19933;-74
2022/11/10 12:56:10;;;;;;;;;;;13.80;99.90;;;;;;4992138;28;20465;-74
2022/11/10 12:59:14;;;;;;;;;;;13.90;99.90;;;;;;4992085;28;20299;-75
2022/11/10 13:02:23;;;;;;;;;;;14.00;99.90;;;;;;5006403;28;19932;-74
2022/11/10 13:05:08;;;;;;;;;;;13.90;99.90;;;;;;4990737;28;19992;-74
2022/11/10 13:08:04;;;;;;;;;;;13.90;99.90;;;;;;4995533;28;19939;-75
2022/11/10 13:11:06;;;;;;;;;;;13.90;99.90;;;;;;4995744;28;20066;-75
2022/11/10 13:13:57;;;;;;;;;;;13.90;99.90;;;;;;4992628;28;19940;-74
2022/11/10 13:16:52;;;;;;;;;;;13.90;99.90;;;;;;4992491;28;19940;-73
2022/11/10 13:19:43;;;;;;;;;;;13.90;99.90;;;;;;4993011;28;19936;-73
2022/11/10 13:22:39;;;;;;;;;;;13.90;99.90;;;;;;4991523;28;20399;-76
2022/11/10 13:25:36;;;;;;;;;;;13.80;99.90;;;;;;5010909;28;20056;-75
2022/11/10 13:28:45;;;;;;;;;;;13.80;99.90;;;;;;4992294;28;19933;-74
2022/11/10 13:31:39;;;;;;;;;;;13.80;99.90;;;;;;5004888;28;20403;-76
2022/11/10 13:34:31;;;;;;;;;;;13.80;99.90;;;;;;4992415;28;20319;-76
2022/11/10 13:37:33;;;;;;;;;;;13.80;99.90;;;;;;4982480;28;19937;-74
2022/11/10 13:40:18;;;;;;;;;;;13.80;99.90;;;;;;5005369;28;20480;-74
2022/11/10 13:43:18;;;;;;;;;;;13.80;99.90;;;;;;4996617;28;19932;-74
2022/11/10 13:46:08;;;;;;;;;;;13.70;99.90;;;;;;4993464;28;20018;-74
2022/11/10 13:48:58;;;;;;;;;;;13.60;99.90;;;;;;4995758;28;19933;-74
2022/11/10 13:51:53;;;;;;;;;;;13.60;99.90;;;;;;5009624;28;19941;-74
2022/11/10 13:54:39;;;;;;;;;;;13.50;99.90;;;;;;5009704;28;20292;-75
2022/11/10 13:57:33;;;;;;;;;;;13.50;99.90;;;;;;5011156;28;20068;-73
2022/11/10 14:00:25;;;;;;;;;;;13.40;99.90;;;;;;4996046;28;19941;-74
2022/11/10 14:03:34;;;;;;;;;;;13.40;99.90;;;;;;5004977;28;19937;-73
2022/11/10 14:06:21;;;;;;;;;;;13.40;99.90;;;;;;4991361;28;20581;-74
2022/11/10 14:09:17;;;;;;;;;;;13.40;99.90;;;;;;4995414;28;19937;-74
2022/11/10 14:12:20;;;;;;;;;;;13.40;99.90;;;;;;4994440;28;20470;-75
2022/11/10 14:15:16;;;;;;;;;;;13.40;99.90;;;;;;4993149;28;20618;-73
2022/11/10 14:18:02;;;;;;;;;;;13.30;99.90;;;;;;5005957;28;20502;-73
2022/11/10 14:20:57;;;;;;;;;;;13.30;99.90;;;;;;5008205;28;20052;-73
2022/11/10 14:23:47;;;;;;;;;;;13.20;99.90;;;;;;5006696;28;19940;-73
2022/11/10 14:26:43;;;;;;;;;;;13.10;99.90;;;;;;4994821;28;19932;-73
2022/11/10 14:29:34;;;;;;;;;;;13.00;99.90;;;;;;5009785;28;20292;-73
2022/11/10 14:32:25;;;;;;;;;;;13.00;99.90;;;;;;5007086;28;19937;-72
2022/11/10 14:35:18;;;;;;;;;;;12.80;99.90;;;;;;4992211;28;19941;-75
2022/11/10 14:38:37;;;;;;;;;;;12.60;99.90;;;;;;4991452;28;19931;-73
2022/11/10 14:41:28;;;;;;;;;;;12.50;99.90;;;;;;4994122;28;19936;-74
2022/11/10 14:44:26;;;;;;;;;;;12.40;99.90;;;;;;5006788;28;20280;-74
2022/11/10 14:47:26;;;;;;;;;;;12.20;99.90;;;;;;4994101;28;20411;-75
2022/11/10 14:50:18;;;;;;;;;;;11.90;99.90;;;;;;5008942;28;19932;-75
2022/11/10 14:53:23;;;;;;;;;;;11.70;99.90;;;;;;4996045;28;19951;-74
2022/11/10 14:56:16;;;;;;;;;;;11.60;99.90;;;;;;5009430;28;19956;-73
2022/11/10 14:59:09;;;;;;;;;;;11.40;99.90;;;;;;4998126;28;20495;-73
2022/11/10 15:02:00;;;;;;;;;;;11.20;99.90;;;;;;4990237;28;19932;-74
2022/11/10 15:04:46;;;;;;;;;;;11.10;99.90;;;;;;4991797;28;20371;-74
2022/11/10 15:07:36;;;;;;;;;;;10.90;99.90;;;;;;4994785;28;19952;-73
2022/11/10 15:10:40;;;;;;;;;;;10.80;99.90;;;;;;4990963;28;20037;-72
2022/11/10 15:13:32;;;;;;;;;;;10.60;99.90;;;;;;4988052;28;20034;-74
2022/11/10 15:16:24;;;;;;;;;;;10.50;99.90;;;;;;5004452;28;20088;-72
2022/11/10 15:19:28;;;;;;;;;;;10.40;99.90;;;;;;5004676;28;20387;-72
2022/11/10 15:22:31;;;;;;;;;;;10.30;99.90;;;;;;5007042;28;19932;-74
2022/11/10 15:25:22;;;;;;;;;;;10.20;99.90;;;;;;5008081;28;20006;-73
2022/11/10 15:28:12;;;;;;;;;;;10.20;99.90;;;;;;5006749;28;20067;-73
2022/11/10 15:31:07;;;;;;;;;;;10.20;99.90;;;;;;5007228;28;19932;-73
2022/11/10 15:33:58;;;;;;;;;;;10.20;99.90;;;;;;5007994;28;20421;-73
2022/11/10 15:37:07;;;;;;;;;;;10.40;99.90;;;;;;5005443;28;20643;-73
2022/11/10 15:40:12;;;;;;;;;;;10.30;99.90;;;;;;5007004;28;19937;-73
2022/11/10 15:43:25;;;;;;;;;;;10.00;99.90;;;;;;5007783;28;19937;-73
2022/11/10 15:46:16;;;;;;;;;;;10.10;99.90;;;;;;5006733;28;20010;-73
2022/11/10 15:49:14;;;;;;;;;;;10.00;99.90;;;;;;5008075;28;19932;-73
2022/11/10 15:52:05;;;;;;;;;;;10.20;99.90;;;;;;4995908;28;20457;-73
2022/11/10 15:54:55;;;;;;;;;;;10.10;99.90;;;;;;5010929;28;20027;-72
2022/11/10 15:57:45;;;;;;;;;;;10.10;99.90;;;;;;5004755;28;19932;-74
2022/11/10 16:00:35;;;;;;;;;;;10.00;99.90;;;;;;4994763;28;20826;-73
2022/11/10 16:03:21;;;;;;;;;;;10.00;99.90;;;;;;4994373;28;19948;-73
2022/11/10 16:06:10;;;;;;;;;;;10.00;99.90;;;;;;5008676;28;19933;-72
2022/11/10 16:09:00;;;;;;;;;;;10.10;99.90;;;;;;5011227;28;20019;-73
2022/11/10 16:11:50;;;;;;;;;;;10.00;99.90;;;;;;5005715;28;20064;-73
2022/11/10 16:14:44;;;;;;;;;;;10.00;99.90;;;;;;5010422;28;19932;-73
2022/11/10 16:17:34;;;;;;;;;;;10.00;99.90;;;;;;4992437;28;20788;-73
2022/11/10 16:20:24;;;;;;;;;;;9.90;99.90;;;;;;5009197;28;19956;-73
2022/11/10 16:23:15;;;;;;;;;;;9.90;99.90;;;;;;5006629;28;19932;-73
2022/11/10 16:26:06;;;;;;;;;;;10.00;99.90;;;;;;5008502;28;19932;-73
2022/11/10 16:28:56;;;;;;;;;;;9.90;99.90;;;;;;4992312;28;19933;-73
2022/11/10 16:31:41;;;;;;;;;;;9.70;99.90;;;;;;4993263;28;19932;-73
2022/11/10 16:34:32;;;;;;;;;;;9.60;99.90;;;;;;5006015;28;19936;-74
2022/11/10 16:37:22;;;;;;;;;;;9.40;99.90;;;;;;4990480;28;19936;-73
2022/11/10 16:40:13;;;;;;;;;;;9.30;99.90;;;;;;4993021;28;20014;-73
2022/11/10 16:43:04;;;;;;;;;;;9.20;99.90;;;;;;4992245;28;20410;-74
2022/11/10 16:45:55;;;;;;;;;;;9.10;99.90;;;;;;4991582;28;20317;-74
2022/11/10 16:48:45;;;;;;;;;;;9.00;99.90;;;;;;5001960;28;19932;-73
2022/11/10 16:51:38;;;;;;;;;;;8.90;99.90;;;;;;4990392;28;20454;-73
2022/11/10 16:54:28;;;;;;;;;;;8.80;99.90;;;;;;5005931;28;19932;-73
2022/11/10 16:57:14;;;;;;;;;;;8.80;99.90;;;;;;5008331;28;19961;-73
2022/11/10 17:00:04;;;;;;;;;;;8.80;99.90;;;;;;5009115;28;20297;-74
2022/11/10 17:03:03;;;;;;;;;;;8.80;99.90;;;;;;5007835;28;20406;-74
2022/11/10 17:05:53;;;;;;;;;;;8.60;99.90;;;;;;4998855;28;19932;-73